createdAt,value
2023-06-10T00:00:02.674Z,17.76
2023-06-10T00:03:00.800Z,17.76
2023-06-10T00:05:31.372Z,17.76
2023-06-10T00:07:59.458Z,17.73
2023-06-10T00:10:27.830Z,17.70
2023-06-10T00:12:56.432Z,17.70
2023-06-10T00:15:24.854Z,17.69
2023-06-10T00:17:56.356Z,17.67
2023-06-10T00:20:24.953Z,17.65
2023-06-10T00:22:53.358Z,17.64
2023-06-10T00:25:21.647Z,17.64
2023-06-10T00:27:49.694Z,17.65
2023-06-10T00:30:17.898Z,17.65
2023-06-10T00:32:46.148Z,17.65
2023-06-10T00:35:14.245Z,17.65
2023-06-10T00:37:42.370Z,17.64
2023-06-10T00:40:11.377Z,17.64
2023-06-10T00:42:39.438Z,17.64
2023-06-10T00:45:08.726Z,17.65
2023-06-10T00:47:38.219Z,17.65
2023-06-10T00:50:07.739Z,17.63
2023-06-10T00:52:35.750Z,17.60
2023-06-10T00:55:04.158Z,17.59
2023-06-10T00:57:33.859Z,17.54
2023-06-10T01:00:01.866Z,17.53
2023-06-10T01:02:30.159Z,17.50
2023-06-10T01:05:02.864Z,17.49
2023-06-10T01:07:54.659Z,17.52
2023-06-10T01:10:34.500Z,17.54
2023-06-10T01:13:12.943Z,17.58
2023-06-10T01:15:41.210Z,17.56
2023-06-10T01:18:11.077Z,17.56
2023-06-10T01:20:41.525Z,17.54
2023-06-10T01:23:11.248Z,17.54
2023-06-10T01:25:45.604Z,17.53
2023-06-10T01:28:37.941Z,17.53
2023-06-10T01:31:15.299Z,17.52
2023-06-10T01:33:45.019Z,17.50
2023-06-10T01:36:13.564Z,17.48
2023-06-10T01:38:42.694Z,17.46
2023-06-10T01:41:11.858Z,17.44
2023-06-10T01:43:39.935Z,17.43
2023-06-10T01:46:08.854Z,17.40
2023-06-10T01:48:36.970Z,17.37
2023-06-10T01:51:05.526Z,17.36
2023-06-10T01:53:33.510Z,17.32
2023-06-10T01:56:01.519Z,17.28
2023-06-10T01:58:31.755Z,17.28
2023-06-10T02:00:59.812Z,17.25
2023-06-10T02:03:28.035Z,17.24
2023-06-10T02:05:56.523Z,17.23
2023-06-10T02:08:24.568Z,17.24
2023-06-10T02:10:52.517Z,17.24
2023-06-10T02:13:20.745Z,17.24
2023-06-10T02:15:56.244Z,17.24
2023-06-10T02:18:24.698Z,17.22
2023-06-10T02:20:52.748Z,17.20
2023-06-10T02:23:21.025Z,17.18
2023-06-10T02:25:49.554Z,17.16
2023-06-10T02:28:17.765Z,17.15
2023-06-10T02:30:48.063Z,17.13
2023-06-10T02:33:16.410Z,17.13
2023-06-10T02:35:45.162Z,17.10
2023-06-10T02:38:13.310Z,17.08
2023-06-10T02:40:41.449Z,17.04
2023-06-10T02:43:10.371Z,17.00
2023-06-10T02:45:38.849Z,16.98
2023-06-10T02:48:08.221Z,16.94
2023-06-10T02:50:36.379Z,16.92
2023-06-10T02:53:11.040Z,16.88
2023-06-10T02:55:40.818Z,16.84
2023-06-10T02:58:11.309Z,16.78
2023-06-10T03:00:42.265Z,16.75
2023-06-10T03:03:11.855Z,16.72
2023-06-10T03:05:46.650Z,16.72
2023-06-10T03:08:15.515Z,16.71
2023-06-10T03:10:43.891Z,16.70
2023-06-10T03:13:13.468Z,16.70
2023-06-10T03:15:42.175Z,16.71
2023-06-10T03:18:13.106Z,16.72
2023-06-10T03:20:41.119Z,16.72
2023-06-10T03:23:10.893Z,16.75
2023-06-10T03:25:39.199Z,16.76
2023-06-10T03:28:07.634Z,16.78
2023-06-10T03:30:36.448Z,16.81
2023-06-10T03:33:04.757Z,16.83
2023-06-10T03:35:33.673Z,16.90
2023-06-10T03:38:02.062Z,16.96
2023-06-10T03:40:32.551Z,17.06
2023-06-10T03:43:01.869Z,17.13
2023-06-10T03:45:30.692Z,17.19
2023-06-10T03:47:58.966Z,17.26
2023-06-10T03:50:32.470Z,17.31
2023-06-10T03:53:00.664Z,17.43
2023-06-10T03:55:29.096Z,17.50
2023-06-10T03:57:58.134Z,17.62
2023-06-10T04:00:26.387Z,17.75
2023-06-10T04:02:54.628Z,17.81
2023-06-10T04:05:31.503Z,17.92
2023-06-10T04:08:00.690Z,18.01
2023-06-10T04:10:28.972Z,18.12
2023-06-10T04:12:57.099Z,18.21
2023-06-10T04:15:30.736Z,18.23
2023-06-10T04:17:59.446Z,18.34
2023-06-10T04:20:28.643Z,18.50
2023-06-10T04:22:56.773Z,19.04
2023-06-10T04:25:25.625Z,19.54
2023-06-10T04:27:53.681Z,19.67
2023-06-10T04:30:21.810Z,20.50
2023-06-10T04:32:50.014Z,20.83
2023-06-10T04:35:18.936Z,20.58
2023-06-10T04:37:47.640Z,19.99
2023-06-10T04:40:17.167Z,19.86
2023-06-10T04:42:45.814Z,19.45
2023-06-10T04:45:14.754Z,19.15
2023-06-10T04:47:43.263Z,18.92
2023-06-10T04:50:13.255Z,18.73
2023-06-10T04:52:42.786Z,18.66
2023-06-10T04:55:12.399Z,18.51
2023-06-10T04:57:40.594Z,18.39
2023-06-10T05:00:09.660Z,18.36
2023-06-10T05:02:37.648Z,18.25
2023-06-10T05:05:06.019Z,18.24
2023-06-10T05:07:34.106Z,18.23
2023-06-10T05:10:02.734Z,18.16
2023-06-10T05:12:30.929Z,18.09
2023-06-10T05:14:58.964Z,18.06
2023-06-10T05:17:27.224Z,17.98
2023-06-10T05:19:55.984Z,18.02
2023-06-10T05:22:25.986Z,17.99
2023-06-10T05:24:54.325Z,18.06
2023-06-10T05:27:23.338Z,18.07
2023-06-10T05:29:52.775Z,18.02
2023-06-10T05:32:21.053Z,18.03
2023-06-10T05:34:49.163Z,18.10
2023-06-10T05:37:17.290Z,18.14
2023-06-10T05:39:45.707Z,18.18
2023-06-10T05:42:13.846Z,18.21
2023-06-10T05:44:41.842Z,18.26
2023-06-10T05:47:09.849Z,18.32
2023-06-10T05:49:37.994Z,18.34
2023-06-10T05:52:06.556Z,18.41
2023-06-10T05:54:34.581Z,18.42
2023-06-10T05:57:03.042Z,18.53
2023-06-10T05:59:31.099Z,18.56
2023-06-10T06:01:59.888Z,18.57
2023-06-10T06:04:28.103Z,18.69
2023-06-10T06:06:56.359Z,18.74
2023-06-10T06:09:24.523Z,18.97
2023-06-10T06:11:52.728Z,19.23
2023-06-10T06:14:20.915Z,19.48
2023-06-10T06:16:49.051Z,19.82
2023-06-10T06:19:17.274Z,19.98
2023-06-10T06:21:45.301Z,20.28
2023-06-10T06:24:13.494Z,20.31
2023-06-10T06:26:41.567Z,20.56
2023-06-10T06:29:09.569Z,20.62
2023-06-10T06:31:37.938Z,20.78
2023-06-10T06:34:06.018Z,21.05
2023-06-10T06:36:33.984Z,21.99
2023-06-10T06:39:02.082Z,23.00
2023-06-10T06:41:30.645Z,23.82
2023-06-10T06:43:58.717Z,24.23
2023-06-10T06:46:32.062Z,24.35
2023-06-10T06:49:00.241Z,24.87
2023-06-10T06:51:28.398Z,24.72
2023-06-10T06:54:00.071Z,25.15
2023-06-10T06:56:29.434Z,25.34
2023-06-10T06:58:58.373Z,25.14
2023-06-10T07:01:26.681Z,24.81
2023-06-10T07:03:54.786Z,24.13
2023-06-10T07:06:23.178Z,23.56
2023-06-10T07:08:52.129Z,23.15
2023-06-10T07:11:20.190Z,23.03
2023-06-10T07:13:48.270Z,23.29
2023-06-10T07:16:16.319Z,24.04
2023-06-10T07:18:44.539Z,24.42
2023-06-10T07:21:12.903Z,24.86
2023-06-10T07:23:44.370Z,24.97
2023-06-10T07:26:14.464Z,24.84
2023-06-10T07:28:42.753Z,25.18
2023-06-10T07:31:11.080Z,25.65
2023-06-10T07:33:40.429Z,25.53
2023-06-10T07:36:08.594Z,25.67
2023-06-10T07:38:37.016Z,25.42
2023-06-10T07:41:05.044Z,25.35
2023-06-10T07:43:33.018Z,25.22
2023-06-10T07:46:01.292Z,25.21
2023-06-10T07:48:29.291Z,25.34
2023-06-10T07:50:57.335Z,25.57
2023-06-10T07:53:25.398Z,25.36
2023-06-10T07:55:54.606Z,25.00
2023-06-10T07:58:23.521Z,25.67
2023-06-10T08:00:51.572Z,25.72
2023-06-10T08:03:19.848Z,25.70
2023-06-10T08:05:48.430Z,25.72
2023-06-10T08:08:16.520Z,25.77
2023-06-10T08:10:44.605Z,25.45
2023-06-10T08:13:12.715Z,25.38
2023-06-10T08:15:40.924Z,25.35
2023-06-10T08:18:08.992Z,25.44
2023-06-10T08:20:37.185Z,25.67
2023-06-10T08:23:05.215Z,25.73
2023-06-10T08:25:33.307Z,25.59
2023-06-10T08:28:01.301Z,25.45
2023-06-10T08:30:29.435Z,25.60
2023-06-10T08:32:58.038Z,25.80
2023-06-10T08:35:26.117Z,26.03
2023-06-10T08:37:54.112Z,26.25
2023-06-10T08:40:22.370Z,26.65
2023-06-10T08:42:53.929Z,26.62
2023-06-10T08:45:21.995Z,26.50
2023-06-10T08:47:53.140Z,26.32
2023-06-10T08:50:23.298Z,26.38
2023-06-10T08:52:55.008Z,26.58
2023-06-10T08:55:29.761Z,26.72
2023-06-10T08:58:02.726Z,26.58
2023-06-10T09:00:32.761Z,26.01
2023-06-10T09:03:04.727Z,25.91
2023-06-10T09:05:37.879Z,26.13
2023-06-10T09:08:07.494Z,26.56
2023-06-10T09:10:35.546Z,26.31
2023-06-10T09:13:03.716Z,26.30
2023-06-10T09:15:31.911Z,26.58
2023-06-10T09:18:01.157Z,26.52
2023-06-10T09:20:29.188Z,26.43
2023-06-10T09:22:57.189Z,26.32
2023-06-10T09:25:37.179Z,25.96
2023-06-10T09:28:05.454Z,26.22
2023-06-10T09:30:35.247Z,26.35
2023-06-10T09:33:04.897Z,26.48
2023-06-10T09:35:33.725Z,26.71
2023-06-10T09:38:03.429Z,26.95
2023-06-10T09:40:31.585Z,26.90
2023-06-10T09:43:00.698Z,26.86
2023-06-10T09:45:34.764Z,27.02
2023-06-10T09:48:03.018Z,27.07
2023-06-10T09:50:34.477Z,27.19
2023-06-10T09:53:05.453Z,27.30
2023-06-10T09:55:34.412Z,27.37
2023-06-10T09:58:02.454Z,27.24
2023-06-10T10:00:35.915Z,27.40
2023-06-10T10:03:04.615Z,27.48
2023-06-10T10:05:32.893Z,27.33
2023-06-10T10:08:01.104Z,27.24
2023-06-10T10:10:29.482Z,27.02
2023-06-10T10:12:57.983Z,27.27
2023-06-10T10:15:29.915Z,27.56
2023-06-10T10:18:18.699Z,27.75
2023-06-10T10:20:51.572Z,27.76
2023-06-10T10:23:23.277Z,28.05
2023-06-10T10:25:53.465Z,27.84
2023-06-10T10:28:21.586Z,27.97
2023-06-10T10:30:54.134Z,27.75
2023-06-10T10:33:48.702Z,28.00
2023-06-10T10:36:17.719Z,27.54
2023-06-10T10:38:46.507Z,27.44
2023-06-10T10:41:14.585Z,27.47
2023-06-10T10:43:43.189Z,27.30
2023-06-10T10:46:16.077Z,27.12
2023-06-10T10:48:44.302Z,27.46
2023-06-10T10:51:12.511Z,27.34
2023-06-10T10:53:40.980Z,27.27
2023-06-10T10:56:14.712Z,27.52
2023-06-10T10:58:43.044Z,27.47
2023-06-10T11:01:13.283Z,27.39
2023-06-10T11:03:46.599Z,27.07
2023-06-10T11:06:17.542Z,27.30
2023-06-10T11:08:45.734Z,27.45
2023-06-10T11:11:22.209Z,27.16
2023-06-10T11:14:02.853Z,27.37
2023-06-10T11:16:31.508Z,27.42
2023-06-10T11:18:59.779Z,27.23
2023-06-10T11:21:29.299Z,27.23
2023-06-10T11:23:59.465Z,27.52
2023-06-10T11:26:33.930Z,27.33
2023-06-10T11:29:04.437Z,27.39
2023-06-10T11:31:33.900Z,27.30
2023-06-10T11:34:07.598Z,27.37
2023-06-10T11:36:41.763Z,27.34
2023-06-10T11:39:10.237Z,27.24
2023-06-10T11:41:39.778Z,27.29
2023-06-10T11:44:17.503Z,27.40
2023-06-10T11:46:51.409Z,27.33
2023-06-10T11:49:19.476Z,27.50
2023-06-10T11:51:51.445Z,27.50
2023-06-10T11:54:19.865Z,27.20
2023-06-10T11:56:48.871Z,27.17
2023-06-10T11:59:16.969Z,27.42
2023-06-10T12:01:45.914Z,27.07
2023-06-10T12:04:16.769Z,27.12
2023-06-10T12:06:49.928Z,27.26
2023-06-10T12:09:28.000Z,27.33
2023-06-10T12:12:00.867Z,27.43
2023-06-10T12:14:55.461Z,27.61
2023-06-10T12:17:25.540Z,27.48
2023-06-10T12:19:53.750Z,27.12
2023-06-10T12:22:22.596Z,26.97
2023-06-10T12:25:00.940Z,27.21
2023-06-10T12:27:30.894Z,27.28
2023-06-10T12:30:03.953Z,27.05
2023-06-10T12:32:45.813Z,26.91
2023-06-10T12:35:18.994Z,27.06
2023-06-10T12:37:58.486Z,27.02
2023-06-10T12:40:33.593Z,27.04
2023-06-10T12:43:01.949Z,27.23
2023-06-10T12:45:39.169Z,27.17
2023-06-10T12:48:10.248Z,26.86
2023-06-10T12:50:40.883Z,26.83
2023-06-10T12:53:09.635Z,26.86
2023-06-10T12:55:38.089Z,26.92
2023-06-10T12:58:06.504Z,27.00
2023-06-10T13:00:36.364Z,27.11
2023-06-10T13:03:07.301Z,27.38
2023-06-10T13:05:40.218Z,27.39
2023-06-10T13:08:11.476Z,27.41
2023-06-10T13:10:40.139Z,27.25
2023-06-10T13:13:10.986Z,27.40
2023-06-10T13:15:42.760Z,27.15
2023-06-10T13:18:12.097Z,27.22
2023-06-10T13:20:40.589Z,27.35
2023-06-10T13:23:08.569Z,27.37
2023-06-10T13:25:36.652Z,27.50
2023-06-10T13:28:05.051Z,27.46
2023-06-10T13:30:33.535Z,27.23
2023-06-10T13:33:02.156Z,27.39
2023-06-10T13:35:30.586Z,27.07
2023-06-10T13:37:58.610Z,26.95
2023-06-10T13:40:26.637Z,27.01
2023-06-10T13:42:55.531Z,27.48
2023-06-10T13:45:24.103Z,27.24
2023-06-10T13:47:52.465Z,27.53
2023-06-10T13:50:20.974Z,27.77
2023-06-10T13:52:49.024Z,27.66
2023-06-10T13:55:18.752Z,27.20
2023-06-10T13:57:46.845Z,27.55
2023-06-10T14:00:15.203Z,27.31
2023-06-10T14:02:43.885Z,27.19
2023-06-10T14:05:12.139Z,27.20
2023-06-10T14:07:41.879Z,27.19
2023-06-10T14:10:10.667Z,27.15
2023-06-10T14:12:38.968Z,27.06
2023-06-10T14:15:07.899Z,27.17
2023-06-10T14:17:36.352Z,27.04
2023-06-10T14:20:05.503Z,27.01
2023-06-10T14:22:33.705Z,26.89
2023-06-10T14:25:01.749Z,26.77
2023-06-10T14:27:29.855Z,26.82
2023-06-10T14:29:57.926Z,26.97
2023-06-10T14:32:26.054Z,27.42
2023-06-10T14:34:54.150Z,27.31
2023-06-10T14:37:22.258Z,26.96
2023-06-10T14:39:50.348Z,27.11
2023-06-10T14:42:18.422Z,27.10
2023-06-10T14:44:46.553Z,26.98
2023-06-10T14:47:14.556Z,26.94
2023-06-10T14:49:43.290Z,26.86
2023-06-10T14:52:11.373Z,27.09
2023-06-10T14:54:39.345Z,27.10
2023-06-10T14:57:08.308Z,27.26
2023-06-10T14:59:36.448Z,27.14
2023-06-10T15:02:04.695Z,27.22
2023-06-10T15:04:33.096Z,27.31
2023-06-10T15:07:01.163Z,27.18
2023-06-10T15:09:29.198Z,27.12
2023-06-10T15:11:57.445Z,27.33
2023-06-10T15:14:25.408Z,27.01
2023-06-10T15:16:53.834Z,26.66
2023-06-10T15:19:21.902Z,26.57
2023-06-10T15:21:50.027Z,26.39
2023-06-10T15:24:18.225Z,26.39
2023-06-10T15:26:46.492Z,26.24
2023-06-10T15:29:15.044Z,26.25
2023-06-10T15:31:43.013Z,26.65
2023-06-10T15:34:11.029Z,26.50
2023-06-10T15:36:39.046Z,26.70
2023-06-10T15:39:09.981Z,26.70
2023-06-10T15:41:38.035Z,26.59
2023-06-10T15:44:06.144Z,26.46
2023-06-10T15:46:35.711Z,26.55
2023-06-10T15:49:04.129Z,26.90
2023-06-10T15:51:32.404Z,26.94
2023-06-10T15:54:00.404Z,26.63
2023-06-10T15:56:28.683Z,26.46
2023-06-10T15:58:56.771Z,26.34
2023-06-10T16:01:24.866Z,26.23
2023-06-10T16:03:53.067Z,26.36
2023-06-10T16:06:21.286Z,26.28
2023-06-10T16:08:49.458Z,26.55
2023-06-10T16:11:17.625Z,26.31
2023-06-10T16:13:45.656Z,26.32
2023-06-10T16:16:13.663Z,26.40
2023-06-10T16:18:41.800Z,26.17
2023-06-10T16:21:09.841Z,25.85
2023-06-10T16:23:40.359Z,25.58
2023-06-10T16:26:08.632Z,25.68
2023-06-10T16:28:36.616Z,25.70
2023-06-10T16:31:04.685Z,25.40
2023-06-10T16:33:33.344Z,25.31
2023-06-10T16:36:01.425Z,25.14
2023-06-10T16:38:29.557Z,24.94
2023-06-10T16:40:58.616Z,24.72
2023-06-10T16:43:27.937Z,24.50
2023-06-10T16:45:57.604Z,24.58
2023-06-10T16:48:26.215Z,24.42
2023-06-10T16:50:58.382Z,24.37
2023-06-10T16:53:26.363Z,24.11
2023-06-10T16:55:54.409Z,24.06
2023-06-10T16:58:23.567Z,23.94
2023-06-10T17:00:51.638Z,23.87
2023-06-10T17:03:19.718Z,23.74
2023-06-10T17:05:47.761Z,23.78
2023-06-10T17:08:15.872Z,23.74
2023-06-10T17:10:44.526Z,23.58
2023-06-10T17:13:12.656Z,23.58
2023-06-10T17:15:40.666Z,23.50
2023-06-10T17:18:08.985Z,23.36
2023-06-10T17:20:37.248Z,23.29
2023-06-10T17:23:05.926Z,23.20
2023-06-10T17:25:35.620Z,22.87
2023-06-10T17:28:04.079Z,22.66
2023-06-10T17:30:32.306Z,22.34
2023-06-10T17:33:00.311Z,22.24
2023-06-10T17:35:28.617Z,22.04
2023-06-10T17:37:56.726Z,21.90
2023-06-10T17:40:25.022Z,21.79
2023-06-10T17:42:53.160Z,21.60
2023-06-10T17:45:21.557Z,21.46
2023-06-10T17:47:49.645Z,21.40
2023-06-10T17:50:19.583Z,21.33
2023-06-10T17:52:48.677Z,21.26
2023-06-10T17:55:17.015Z,21.25
2023-06-10T17:57:45.053Z,21.18
2023-06-10T18:00:13.675Z,21.09
2023-06-10T18:02:41.941Z,20.99
2023-06-10T18:05:10.624Z,20.92
2023-06-10T18:07:39.125Z,20.79
2023-06-10T18:10:07.400Z,20.73
2023-06-10T18:12:35.871Z,20.63
2023-06-10T18:15:05.396Z,20.50
2023-06-10T18:17:34.594Z,20.39
2023-06-10T18:20:03.973Z,20.28
2023-06-10T18:22:32.161Z,20.15
2023-06-10T18:25:00.364Z,20.00
2023-06-10T18:27:28.497Z,19.88
2023-06-10T18:29:56.456Z,19.76
2023-06-10T18:32:24.555Z,19.66
2023-06-10T18:34:53.799Z,19.59
2023-06-10T18:37:21.790Z,19.47
2023-06-10T18:39:50.292Z,19.37
2023-06-10T18:42:18.295Z,19.27
2023-06-10T18:44:46.871Z,19.17
2023-06-10T18:47:15.006Z,19.06
2023-06-10T18:49:43.047Z,18.98
2023-06-10T18:52:11.146Z,18.89
2023-06-10T18:54:39.328Z,18.79
2023-06-10T18:57:08.210Z,18.70
2023-06-10T18:59:36.648Z,18.62
2023-06-10T19:02:04.805Z,18.53
2023-06-10T19:04:32.779Z,18.44
2023-06-10T19:07:00.710Z,18.35
2023-06-10T19:09:28.963Z,18.28
2023-06-10T19:11:57.025Z,18.18
2023-06-10T19:14:25.008Z,18.09
2023-06-10T19:16:53.100Z,18.01
2023-06-10T19:19:21.226Z,17.95
2023-06-10T19:21:49.236Z,17.86
2023-06-10T19:24:17.269Z,17.77
2023-06-10T19:26:45.512Z,17.69
2023-06-10T19:29:13.511Z,17.61
2023-06-10T19:31:41.554Z,17.53
2023-06-10T19:34:09.742Z,17.45
2023-06-10T19:36:37.838Z,17.37
2023-06-10T19:39:06.008Z,17.28
2023-06-10T19:41:34.122Z,17.21
2023-06-10T19:44:02.099Z,17.15
2023-06-10T19:46:31.335Z,17.08
2023-06-10T19:48:59.984Z,17.03
2023-06-10T19:51:27.992Z,16.99
2023-06-10T19:53:56.599Z,16.92
2023-06-10T19:56:24.544Z,16.86
2023-06-10T19:58:52.818Z,16.79
2023-06-10T20:01:20.922Z,16.74
2023-06-10T20:03:48.978Z,16.69
2023-06-10T20:06:17.244Z,16.65
2023-06-10T20:08:45.331Z,16.62
2023-06-10T20:11:13.377Z,16.58
2023-06-10T20:13:41.432Z,16.52
2023-06-10T20:16:09.586Z,16.46
2023-06-10T20:18:37.869Z,16.42
2023-06-10T20:21:06.021Z,16.36
2023-06-10T20:23:34.127Z,16.32
2023-06-10T20:26:02.123Z,16.29
2023-06-10T20:28:30.259Z,16.27
2023-06-10T20:30:58.211Z,16.23
2023-06-10T20:33:26.350Z,16.17
2023-06-10T20:35:54.306Z,16.12
2023-06-10T20:38:22.390Z,16.07
2023-06-10T20:40:50.774Z,16.02
2023-06-10T20:43:18.855Z,15.98
2023-06-10T20:45:47.069Z,15.94
2023-06-10T20:48:16.614Z,15.90
2023-06-10T20:50:44.792Z,15.86
2023-06-10T20:53:12.993Z,15.84
2023-06-10T20:55:41.092Z,15.80
2023-06-10T20:58:09.125Z,15.77
2023-06-10T21:00:37.274Z,15.76
2023-06-10T21:03:05.422Z,15.74
2023-06-10T21:05:33.617Z,15.71
2023-06-10T21:08:01.705Z,15.67
2023-06-10T21:10:29.900Z,15.66
2023-06-10T21:12:58.004Z,15.63
2023-06-10T21:15:26.134Z,15.62
2023-06-10T21:17:54.179Z,15.61
2023-06-10T21:20:22.346Z,15.59
2023-06-10T21:22:50.562Z,15.56
2023-06-10T21:25:18.627Z,15.52
2023-06-10T21:27:46.670Z,15.51
2023-06-10T21:30:14.962Z,15.50
2023-06-10T21:32:43.053Z,15.49
2023-06-10T21:35:11.440Z,15.48
2023-06-10T21:37:39.727Z,15.47
2023-06-10T21:40:08.437Z,15.47
2023-06-10T21:42:37.114Z,15.44
2023-06-10T21:45:05.799Z,15.43
2023-06-10T21:47:33.799Z,15.39
2023-06-10T21:50:01.803Z,15.35
2023-06-10T21:52:29.918Z,15.33
2023-06-10T21:54:58.190Z,15.31
2023-06-10T21:57:26.341Z,15.30
2023-06-10T21:59:54.438Z,15.27
2023-06-10T22:02:22.691Z,15.23
2023-06-10T22:04:51.234Z,15.19
2023-06-10T22:07:19.184Z,15.15
2023-06-10T22:09:49.376Z,15.12
2023-06-10T22:12:17.863Z,15.08
2023-06-10T22:14:45.966Z,15.05
2023-06-10T22:17:14.073Z,15.01
2023-06-10T22:19:42.722Z,15.02
2023-06-10T22:22:10.852Z,15.02
2023-06-10T22:24:38.933Z,15.04
2023-06-10T22:27:09.612Z,15.05
2023-06-10T22:29:38.277Z,15.05
2023-06-10T22:32:06.947Z,15.02
2023-06-10T22:34:35.169Z,15.01
2023-06-10T22:37:03.272Z,15.01
2023-06-10T22:39:31.246Z,14.99
2023-06-10T22:42:00.621Z,14.97
2023-06-10T22:44:28.801Z,14.93
2023-06-10T22:46:56.830Z,14.89
2023-06-10T22:49:24.893Z,14.84
2023-06-10T22:51:53.024Z,14.81
2023-06-10T22:54:21.324Z,14.76
2023-06-10T22:56:49.342Z,14.74
2023-06-10T22:59:17.317Z,14.74
2023-06-10T23:01:45.379Z,14.74
2023-06-10T23:04:13.786Z,14.69
2023-06-10T23:06:41.822Z,14.68
2023-06-10T23:09:10.364Z,14.67
2023-06-10T23:11:39.052Z,14.64
2023-06-10T23:14:07.102Z,14.64
2023-06-10T23:16:35.587Z,14.59
2023-06-10T23:19:03.883Z,14.54
2023-06-10T23:21:35.014Z,14.48
2023-06-10T23:24:03.345Z,14.46
2023-06-10T23:26:33.286Z,14.42
2023-06-10T23:29:01.257Z,14.37
2023-06-10T23:31:29.298Z,14.35
2023-06-10T23:33:59.206Z,14.33
2023-06-10T23:36:27.223Z,14.29
2023-06-10T23:38:55.352Z,14.25
2023-06-10T23:41:23.282Z,14.21
2023-06-10T23:43:51.816Z,14.18
2023-06-10T23:46:19.809Z,14.17
2023-06-10T23:48:47.873Z,14.14
2023-06-10T23:51:16.246Z,14.12
2023-06-10T23:53:44.245Z,14.12
2023-06-10T23:56:13.753Z,14.09
2023-06-10T23:58:41.738Z,14.08
